sensor_id;sensor_type;location;lat;lon;timestamp;pressure;altitude;pressure_sealevel;temperature;humidity
7018;BME280;3549;42.162;24.726;2023-07-08T00:00:52;47557.53;;;-141.97;60.21
7018;BME280;3549;42.162;24.726;2023-07-08T00:03:18;47472.94;;;-141.97;60.51
7018;BME280;3549;42.162;24.726;2023-07-08T00:05:46;47478.72;;;-141.97;60.15
7018;BME280;3549;42.162;24.726;2023-07-08T00:08:17;47496.00;;;-141.97;60.50
7018;BME280;3549;42.162;24.726;2023-07-08T00:10:42;47457.56;;;-141.97;60.18
7018;BME280;3549;42.162;24.726;2023-07-08T00:13:08;47490.25;;;-141.97;59.58
7018;BME280;3549;42.162;24.726;2023-07-08T00:15:34;47503.69;;;-141.97;59.31
7018;BME280;3549;42.162;24.726;2023-07-08T00:18:10;47419.13;;;-141.97;58.93
7018;BME280;3549;42.162;24.726;2023-07-08T00:20:48;47488.31;;;-141.97;58.65
7018;BME280;3549;42.162;24.726;2023-07-08T00:23:13;47542.16;;;-141.97;58.72
7018;BME280;3549;42.162;24.726;2023-07-08T00:25:39;47472.94;;;-141.97;58.42
7018;BME280;3549;42.162;24.726;2023-07-08T00:28:19;47459.50;;;-141.97;58.74
7018;BME280;3549;42.162;24.726;2023-07-08T00:30:46;47469.09;;;-141.97;58.38
7018;BME280;3549;42.162;24.726;2023-07-08T00:33:11;47469.09;;;-141.97;58.31
7018;BME280;3549;42.162;24.726;2023-07-08T00:35:41;47492.16;;;-141.97;58.00
7018;BME280;3549;42.162;24.726;2023-07-08T00:38:21;47526.75;;;-141.97;58.42
7018;BME280;3549;42.162;24.726;2023-07-08T00:49:17;47492.16;;;-141.97;59.30
7018;BME280;3549;42.162;24.726;2023-07-08T00:51:46;47494.09;;;-141.97;59.41
7018;BME280;3549;42.162;24.726;2023-07-08T00:54:14;47488.31;;;-141.97;59.42
7018;BME280;3549;42.162;24.726;2023-07-08T00:56:52;47472.94;;;-141.97;59.60
7018;BME280;3549;42.162;24.726;2023-07-08T00:59:33;47440.28;;;-141.97;59.60
7018;BME280;3549;42.162;24.726;2023-07-08T01:02:01;47492.16;;;-141.97;59.96
7018;BME280;3549;42.162;24.726;2023-07-08T01:04:35;47461.41;;;-141.97;60.33
7018;BME280;3549;42.162;24.726;2023-07-08T01:07:03;47482.56;;;-141.97;60.40
7018;BME280;3549;42.162;24.726;2023-07-08T01:09:34;47515.22;;;-141.97;60.52
7018;BME280;3549;42.162;24.726;2023-07-08T01:12:03;47546.00;;;-141.97;60.56
7018;BME280;3549;42.162;24.726;2023-07-08T01:14:31;47515.22;;;-141.97;60.48
7018;BME280;3549;42.162;24.726;2023-07-08T01:16:58;47501.78;;;-141.97;60.65
7018;BME280;3549;42.162;24.726;2023-07-08T01:19:23;47496.00;;;-141.97;60.50
7018;BME280;3549;42.162;24.726;2023-07-08T01:24:24;47513.31;;;-141.97;60.34
7018;BME280;3549;42.162;24.726;2023-07-08T01:26:50;47476.78;;;-141.97;60.12
7018;BME280;3549;42.162;24.726;2023-07-08T01:29:16;47482.56;;;-141.97;60.08
7018;BME280;3549;42.162;24.726;2023-07-08T01:31:41;47486.41;;;-141.97;60.05
7018;BME280;3549;42.162;24.726;2023-07-08T01:34:14;47530.59;;;-141.97;60.19
7018;BME280;3549;42.162;24.726;2023-07-08T01:36:45;47474.88;;;-141.97;59.95
7018;BME280;3549;42.162;24.726;2023-07-08T01:39:14;47521.00;;;-141.97;60.20
7018;BME280;3549;42.162;24.726;2023-07-08T01:41:42;47538.28;;;-141.97;60.20
7018;BME280;3549;42.162;24.726;2023-07-08T01:44:29;47519.06;;;-141.97;60.40
7018;BME280;3549;42.162;24.726;2023-07-08T01:47:02;47434.50;;;-141.97;60.31
7018;BME280;3549;42.162;24.726;2023-07-08T01:49:29;47480.63;;;-141.97;60.15
7018;BME280;3549;42.162;24.726;2023-07-08T01:51:55;47511.38;;;-141.97;60.10
7018;BME280;3549;42.162;24.726;2023-07-08T01:54:21;47453.72;;;-141.97;60.16
7018;BME280;3549;42.162;24.726;2023-07-08T01:56:46;47490.25;;;-141.97;60.44
7018;BME280;3549;42.162;24.726;2023-07-08T01:59:16;47486.41;;;-141.97;60.29
7018;BME280;3549;42.162;24.726;2023-07-08T02:01:42;47478.72;;;-141.97;60.18
7018;BME280;3549;42.162;24.726;2023-07-08T02:04:07;47511.38;;;-141.97;60.04
7018;BME280;3549;42.162;24.726;2023-07-08T02:06:32;47509.47;;;-141.97;60.03
7018;BME280;3549;42.162;24.726;2023-07-08T02:08:58;47522.91;;;-141.97;60.06
7018;BME280;3549;42.162;24.726;2023-07-08T02:11:24;47496.00;;;-141.97;60.10
7018;BME280;3549;42.162;24.726;2023-07-08T02:13:49;47494.09;;;-141.97;59.80
7018;BME280;3549;42.162;24.726;2023-07-08T02:16:15;47522.91;;;-141.97;59.77
7018;BME280;3549;42.162;24.726;2023-07-08T02:18:40;47496.00;;;-141.97;59.94
7018;BME280;3549;42.162;24.726;2023-07-08T02:21:05;47497.94;;;-141.97;59.96
7018;BME280;3549;42.162;24.726;2023-07-08T02:23:31;47511.38;;;-141.97;60.15
7018;BME280;3549;42.162;24.726;2023-07-08T02:25:56;47521.00;;;-141.97;60.04
7018;BME280;3549;42.162;24.726;2023-07-08T02:28:22;47501.78;;;-141.97;60.32
7018;BME280;3549;42.162;24.726;2023-07-08T02:30:47;47534.44;;;-141.97;60.41
7018;BME280;3549;42.162;24.726;2023-07-08T02:33:13;47509.47;;;-141.97;60.44
7018;BME280;3549;42.162;24.726;2023-07-08T02:35:42;47509.47;;;-141.97;60.46
7018;BME280;3549;42.162;24.726;2023-07-08T02:38:08;47486.41;;;-141.97;60.69
7018;BME280;3549;42.162;24.726;2023-07-08T02:40:33;47669.00;;;-141.97;60.70
7018;BME280;3549;42.162;24.726;2023-07-08T02:42:59;47476.78;;;-141.97;60.65
7018;BME280;3549;42.162;24.726;2023-07-08T02:45:24;47726.66;;;-141.97;60.41
7018;BME280;3549;42.162;24.726;2023-07-08T02:47:49;47480.63;;;-141.97;60.55
7018;BME280;3549;42.162;24.726;2023-07-08T02:50:15;47542.16;;;-141.97;60.36
7018;BME280;3549;42.162;24.726;2023-07-08T02:52:42;47463.34;;;-141.97;60.24
7018;BME280;3549;42.162;24.726;2023-07-08T02:55:08;47534.44;;;-141.97;60.32
7018;BME280;3549;42.162;24.726;2023-07-08T02:57:33;47515.22;;;-141.97;60.35
7018;BME280;3549;42.162;24.726;2023-07-08T02:59:58;47469.09;;;-141.97;59.70
7018;BME280;3549;42.162;24.726;2023-07-08T03:02:24;47501.78;;;-141.97;59.82
7018;BME280;3549;42.162;24.726;2023-07-08T03:04:50;47501.78;;;-141.97;59.52
7018;BME280;3549;42.162;24.726;2023-07-08T03:07:16;47465.25;;;-141.97;59.87
7018;BME280;3549;42.162;24.726;2023-07-08T03:09:44;47465.25;;;-141.97;59.66
7018;BME280;3549;42.162;24.726;2023-07-08T03:12:11;47461.41;;;-141.97;59.89
7018;BME280;3549;42.162;24.726;2023-07-08T03:14:37;47407.59;;;-141.97;59.71
7018;BME280;3549;42.162;24.726;2023-07-08T03:17:03;47501.78;;;-141.97;60.19
7018;BME280;3549;42.162;24.726;2023-07-08T03:19:29;47501.78;;;-141.97;60.21
7018;BME280;3549;42.162;24.726;2023-07-08T03:21:54;47496.00;;;-141.97;60.02
7018;BME280;3549;42.162;24.726;2023-07-08T03:24:20;47496.00;;;-141.97;60.19
7018;BME280;3549;42.162;24.726;2023-07-08T03:26:45;47497.94;;;-141.97;60.39
7018;BME280;3549;42.162;24.726;2023-07-08T03:29:15;47507.53;;;-141.97;60.09
7018;BME280;3549;42.162;24.726;2023-07-08T03:31:41;47503.69;;;-141.97;60.27
7018;BME280;3549;42.162;24.726;2023-07-08T03:34:09;47530.59;;;-141.97;60.12
7018;BME280;3549;42.162;24.726;2023-07-08T03:36:37;47515.22;;;-141.97;60.11
7018;BME280;3549;42.162;24.726;2023-07-08T03:39:15;47738.19;;;-141.97;60.12
7018;BME280;3549;42.162;24.726;2023-07-08T03:41:41;47530.59;;;-141.97;60.44
7018;BME280;3549;42.162;24.726;2023-07-08T03:44:06;47699.75;;;-141.97;60.85
7018;BME280;3549;42.162;24.726;2023-07-08T03:46:32;47513.31;;;-141.97;60.85
7018;BME280;3549;42.162;24.726;2023-07-08T03:48:57;47521.00;;;-141.97;61.05
7018;BME280;3549;42.162;24.726;2023-07-08T03:51:26;47515.22;;;-141.97;60.80
7018;BME280;3549;42.162;24.726;2023-07-08T03:53:52;47517.16;;;-141.97;60.38
7018;BME280;3549;42.162;24.726;2023-07-08T03:56:17;47496.00;;;-141.97;60.15
7018;BME280;3549;42.162;24.726;2023-07-08T03:58:43;47688.22;;;-141.97;60.19
7018;BME280;3549;42.162;24.726;2023-07-08T04:01:16;47480.63;;;-141.97;60.57
7018;BME280;3549;42.162;24.726;2023-07-08T04:03:42;47465.25;;;-141.97;60.43
7018;BME280;3549;42.162;24.726;2023-07-08T04:06:07;47507.53;;;-141.97;60.47
7018;BME280;3549;42.162;24.726;2023-07-08T04:08:33;47503.69;;;-141.97;60.32
7018;BME280;3549;42.162;24.726;2023-07-08T04:10:58;47547.91;;;-141.97;60.08
7018;BME280;3549;42.162;24.726;2023-07-08T04:13:23;47469.09;;;-141.97;60.15
7018;BME280;3549;42.162;24.726;2023-07-08T04:15:59;47534.44;;;-141.97;60.16
7018;BME280;3549;42.162;24.726;2023-07-08T04:18:26;47519.06;;;-141.97;59.53
7018;BME280;3549;42.162;24.726;2023-07-08T04:20:52;47494.09;;;-141.97;58.76
7018;BME280;3549;42.162;24.726;2023-07-08T04:23:19;47459.50;;;-141.97;59.11
7018;BME280;3549;42.162;24.726;2023-07-08T04:25:45;47665.16;;;-141.97;58.79
7018;BME280;3549;42.162;24.726;2023-07-08T04:28:12;47449.88;;;-141.97;58.63
7018;BME280;3549;42.162;24.726;2023-07-08T04:30:37;47515.22;;;-141.97;58.56
7018;BME280;3549;42.162;24.726;2023-07-08T04:33:07;47496.00;;;-141.97;58.01
7018;BME280;3549;42.162;24.726;2023-07-08T04:35:34;47536.38;;;-141.97;58.30
7018;BME280;3549;42.162;24.726;2023-07-08T04:38:00;47768.94;;;-141.97;57.66
7018;BME280;3549;42.162;24.726;2023-07-08T04:40:27;47511.38;;;-141.97;57.37
7018;BME280;3549;42.162;24.726;2023-07-08T04:42:52;47522.91;;;-141.97;56.72
7018;BME280;3549;42.162;24.726;2023-07-08T04:45:18;47513.31;;;-141.97;56.59
7018;BME280;3549;42.162;24.726;2023-07-08T04:47:44;47453.72;;;-141.97;56.56
7018;BME280;3549;42.162;24.726;2023-07-08T04:50:12;47522.91;;;-141.97;56.51
7018;BME280;3549;42.162;24.726;2023-07-08T04:52:38;47534.44;;;-141.97;56.66
7018;BME280;3549;42.162;24.726;2023-07-08T04:55:03;47446.03;;;-141.97;56.88
7018;BME280;3549;42.162;24.726;2023-07-08T04:57:29;47680.53;;;-141.97;56.99
7018;BME280;3549;42.162;24.726;2023-07-08T04:59:54;47490.25;;;-141.97;56.55
7018;BME280;3549;42.162;24.726;2023-07-08T05:02:19;47509.47;;;-141.97;56.41
7018;BME280;3549;42.162;24.726;2023-07-08T05:04:45;47492.16;;;-141.97;56.12
7018;BME280;3549;42.162;24.726;2023-07-08T05:07:10;47509.47;;;-141.97;55.64
7018;BME280;3549;42.162;24.726;2023-07-08T05:09:36;47496.00;;;-141.97;56.19
7018;BME280;3549;42.162;24.726;2023-07-08T05:12:01;47490.25;;;-141.97;55.81
7018;BME280;3549;42.162;24.726;2023-07-08T05:14:26;47492.16;;;-141.97;55.43
7018;BME280;3549;42.162;24.726;2023-07-08T05:16:52;47519.06;;;-141.97;55.16
7018;BME280;3549;42.162;24.726;2023-07-08T05:19:17;47526.75;;;-141.97;55.06
7018;BME280;3549;42.162;24.726;2023-07-08T05:21:43;47497.94;;;-141.97;55.18
7018;BME280;3549;42.162;24.726;2023-07-08T05:24:10;47509.47;;;-141.97;54.57
7018;BME280;3549;42.162;24.726;2023-07-08T05:26:55;47517.16;;;-141.97;54.11
7018;BME280;3549;42.162;24.726;2023-07-08T05:29:21;47471.03;;;-141.97;53.91
7018;BME280;3549;42.162;24.726;2023-07-08T05:31:47;47417.22;;;-141.97;53.91
7018;BME280;3549;42.162;24.726;2023-07-08T05:34:13;47492.16;;;-141.97;54.24
7018;BME280;3549;42.162;24.726;2023-07-08T05:36:38;47480.63;;;-141.97;53.93
7018;BME280;3549;42.162;24.726;2023-07-08T05:39:04;47413.38;;;-141.97;53.69
7018;BME280;3549;42.162;24.726;2023-07-08T05:41:32;47492.16;;;-141.97;53.04
7018;BME280;3549;42.162;24.726;2023-07-08T05:43:58;47499.84;;;-141.97;53.48
7018;BME280;3549;42.162;24.726;2023-07-08T05:46:23;47622.88;;;-141.97;53.15
7018;BME280;3549;42.162;24.726;2023-07-08T05:48:49;47515.22;;;-141.97;53.34
7018;BME280;3549;42.162;24.726;2023-07-08T05:51:16;47449.88;;;-141.97;53.94
7018;BME280;3549;42.162;24.726;2023-07-08T05:53:41;47505.63;;;-141.97;53.62
7018;BME280;3549;42.162;24.726;2023-07-08T05:56:07;47472.94;;;-141.97;53.69
7018;BME280;3549;42.162;24.726;2023-07-08T05:58:32;47478.72;;;-141.97;53.02
7018;BME280;3549;42.162;24.726;2023-07-08T06:00:58;47482.56;;;-141.97;52.48
7018;BME280;3549;42.162;24.726;2023-07-08T06:03:24;47482.56;;;-141.97;52.49
7018;BME280;3549;42.162;24.726;2023-07-08T06:05:49;47509.47;;;-141.97;51.83
7018;BME280;3549;42.162;24.726;2023-07-08T06:08:15;47480.63;;;-141.97;51.79
7018;BME280;3549;42.162;24.726;2023-07-08T06:10:44;47474.88;;;-141.97;51.24
7018;BME280;3549;42.162;24.726;2023-07-08T06:13:11;47484.47;;;-141.97;50.98
7018;BME280;3549;42.162;24.726;2023-07-08T06:15:37;47513.31;;;-141.97;51.04
7018;BME280;3549;42.162;24.726;2023-07-08T06:18:02;47519.06;;;-141.97;51.15
7018;BME280;3549;42.162;24.726;2023-07-08T06:20:29;47463.34;;;-141.97;50.59
7018;BME280;3549;42.162;24.726;2023-07-08T06:22:54;47403.75;;;-141.97;50.73
7018;BME280;3549;42.162;24.726;2023-07-08T06:25:20;47492.16;;;-141.97;50.19
7018;BME280;3549;42.162;24.726;2023-07-08T06:27:45;47476.78;;;-141.97;49.80
7018;BME280;3549;42.162;24.726;2023-07-08T06:30:11;47486.41;;;-141.97;50.29
7018;BME280;3549;42.162;24.726;2023-07-08T06:32:36;47496.00;;;-141.97;49.61
7018;BME280;3549;42.162;24.726;2023-07-08T06:35:02;47472.94;;;-141.97;47.79
7018;BME280;3549;42.162;24.726;2023-07-08T06:37:27;47476.78;;;-141.97;48.67
7018;BME280;3549;42.162;24.726;2023-07-08T06:39:53;47501.78;;;-141.97;48.26
7018;BME280;3549;42.162;24.726;2023-07-08T06:42:18;47471.03;;;-141.97;46.99
7018;BME280;3549;42.162;24.726;2023-07-08T06:44:43;47492.16;;;-141.97;46.53
7018;BME280;3549;42.162;24.726;2023-07-08T06:47:19;47453.72;;;-141.97;45.90
7018;BME280;3549;42.162;24.726;2023-07-08T06:49:46;47471.03;;;-141.97;46.81
7018;BME280;3549;42.162;24.726;2023-07-08T06:52:11;47484.47;;;-141.97;46.47
7018;BME280;3549;42.162;24.726;2023-07-08T06:54:37;47471.03;;;-141.97;46.35
7018;BME280;3549;42.162;24.726;2023-07-08T06:57:02;47457.56;;;-141.97;46.12
7018;BME280;3549;42.162;24.726;2023-07-08T06:59:28;47419.13;;;-141.97;44.92
7018;BME280;3549;42.162;24.726;2023-07-08T07:01:54;47434.50;;;-141.97;45.01
7018;BME280;3549;42.162;24.726;2023-07-08T07:04:19;47467.19;;;-141.97;45.17
7018;BME280;3549;42.162;24.726;2023-07-08T07:06:45;47476.78;;;-141.97;44.77
7018;BME280;3549;42.162;24.726;2023-07-08T07:09:10;47434.50;;;-141.97;44.10
7018;BME280;3549;42.162;24.726;2023-07-08T07:11:35;47430.66;;;-141.97;43.82
7018;BME280;3549;42.162;24.726;2023-07-08T07:14:01;47444.13;;;-141.97;44.82
7018;BME280;3549;42.162;24.726;2023-07-08T07:16:27;47511.38;;;-141.97;44.37
7018;BME280;3549;42.162;24.726;2023-07-08T07:18:53;47440.28;;;-141.97;43.02
7018;BME280;3549;42.162;24.726;2023-07-08T07:21:18;47505.63;;;-141.97;45.14
7018;BME280;3549;42.162;24.726;2023-07-08T07:23:44;47453.72;;;-141.97;45.66
7018;BME280;3549;42.162;24.726;2023-07-08T07:26:09;47449.88;;;-141.97;45.92
7018;BME280;3549;42.162;24.726;2023-07-08T07:28:34;47480.63;;;-141.97;47.25
7018;BME280;3549;42.162;24.726;2023-07-08T07:31:00;47457.56;;;-141.97;46.25
7018;BME280;3549;42.162;24.726;2023-07-08T07:33:26;47449.88;;;-141.97;45.06
7018;BME280;3549;42.162;24.726;2023-07-08T07:35:52;47486.41;;;-141.97;45.69
7018;BME280;3549;42.162;24.726;2023-07-08T07:38:18;47451.81;;;-141.97;44.39
7018;BME280;3549;42.162;24.726;2023-07-08T07:40:43;47480.63;;;-141.97;43.73
7018;BME280;3549;42.162;24.726;2023-07-08T07:43:09;47453.72;;;-141.97;43.61
7018;BME280;3549;42.162;24.726;2023-07-08T07:45:35;47411.44;;;-141.97;43.23
7018;BME280;3549;42.162;24.726;2023-07-08T07:48:00;47524.84;;;-141.97;42.83
7018;BME280;3549;42.162;24.726;2023-07-08T07:50:26;47459.50;;;-141.97;43.15
7018;BME280;3549;42.162;24.726;2023-07-08T07:52:52;47444.13;;;-141.97;43.92
7018;BME280;3549;42.162;24.726;2023-07-08T07:55:19;47444.13;;;-141.97;42.97
7018;BME280;3549;42.162;24.726;2023-07-08T07:57:44;47438.34;;;-141.97;42.54
7018;BME280;3549;42.162;24.726;2023-07-08T08:00:12;47424.91;;;-141.97;42.56
7018;BME280;3549;42.162;24.726;2023-07-08T08:02:40;47446.03;;;-141.97;42.97
7018;BME280;3549;42.162;24.726;2023-07-08T08:05:05;47463.34;;;-141.97;42.52
7018;BME280;3549;42.162;24.726;2023-07-08T08:07:31;47438.34;;;-141.97;42.64
7018;BME280;3549;42.162;24.726;2023-07-08T08:09:56;47465.25;;;-141.97;42.67
7018;BME280;3549;42.162;24.726;2023-07-08T08:12:21;47424.91;;;-141.97;41.71
7018;BME280;3549;42.162;24.726;2023-07-08T08:14:50;47426.81;;;-141.97;41.79
7018;BME280;3549;42.162;24.726;2023-07-08T08:17:15;47426.81;;;-141.97;42.26
7018;BME280;3549;42.162;24.726;2023-07-08T08:19:41;47446.03;;;-141.97;42.59
7018;BME280;3549;42.162;24.726;2023-07-08T08:22:06;47424.91;;;-141.97;42.26
7018;BME280;3549;42.162;24.726;2023-07-08T08:24:33;47422.97;;;-141.97;41.76
7018;BME280;3549;42.162;24.726;2023-07-08T08:26:58;47428.75;;;-141.97;40.34
7018;BME280;3549;42.162;24.726;2023-07-08T08:29:25;47403.75;;;-141.97;41.06
7018;BME280;3549;42.162;24.726;2023-07-08T08:31:50;47396.06;;;-141.97;40.73
7018;BME280;3549;42.162;24.726;2023-07-08T08:34:16;47409.53;;;-141.97;40.32
7018;BME280;3549;42.162;24.726;2023-07-08T08:36:42;47415.28;;;-141.97;39.40
7018;BME280;3549;42.162;24.726;2023-07-08T08:39:08;47380.69;;;-141.97;39.59
7018;BME280;3549;42.162;24.726;2023-07-08T08:41:35;47436.44;;;-141.97;39.92
7018;BME280;3549;42.162;24.726;2023-07-08T08:44:02;47388.38;;;-141.97;38.99
7018;BME280;3549;42.162;24.726;2023-07-08T08:49:25;47405.69;;;-141.97;38.50
7018;BME280;3549;42.162;24.726;2023-07-08T08:51:52;47384.53;;;-141.97;37.63
7018;BME280;3549;42.162;24.726;2023-07-08T08:54:18;47415.28;;;-141.97;38.35
7018;BME280;3549;42.162;24.726;2023-07-08T09:02:37;47396.06;;;-141.97;38.70
7018;BME280;3549;42.162;24.726;2023-07-08T09:05:10;47398.00;;;-141.97;39.00
7018;BME280;3549;42.162;24.726;2023-07-08T09:10:51;47353.78;;;-141.97;38.55
7018;BME280;3549;42.162;24.726;2023-07-08T09:13:34;47403.75;;;-141.97;38.54
7018;BME280;3549;42.162;24.726;2023-07-08T09:16:14;47388.38;;;-141.97;37.51
7018;BME280;3549;42.162;24.726;2023-07-08T09:19:12;47324.97;;;-141.97;37.66
7018;BME280;3549;42.162;24.726;2023-07-08T09:21:44;47407.59;;;-141.97;38.04
7018;BME280;3549;42.162;24.726;2023-07-08T09:24:18;47405.69;;;-141.97;38.46
7018;BME280;3549;42.162;24.726;2023-07-08T09:26:46;47392.22;;;-141.97;38.52
7018;BME280;3549;42.162;24.726;2023-07-08T09:29:14;47449.88;;;-141.97;38.47
7018;BME280;3549;42.162;24.726;2023-07-08T09:31:40;47401.84;;;-141.97;38.26
7018;BME280;3549;42.162;24.726;2023-07-08T09:34:11;47392.22;;;-141.97;37.60
7018;BME280;3549;42.162;24.726;2023-07-08T09:36:42;47346.09;;;-141.97;36.90
7018;BME280;3549;42.162;24.726;2023-07-08T09:39:13;47382.63;;;-141.97;36.94
7018;BME280;3549;42.162;24.726;2023-07-08T09:41:41;47373.00;;;-141.97;36.09
7018;BME280;3549;42.162;24.726;2023-07-08T09:44:20;47382.63;;;-141.97;36.22
7018;BME280;3549;42.162;24.726;2023-07-08T09:46:48;47355.72;;;-141.97;36.02
7018;BME280;3549;42.162;24.726;2023-07-08T09:49:29;47348.03;;;-141.97;35.62
7018;BME280;3549;42.162;24.726;2023-07-08T09:51:56;47355.72;;;-141.97;34.98
7018;BME280;3549;42.162;24.726;2023-07-08T09:54:23;47403.75;;;-141.97;36.59
7018;BME280;3549;42.162;24.726;2023-07-08T09:57:09;47582.50;;;-141.97;37.12
7018;BME280;3549;42.162;24.726;2023-07-08T09:59:46;47388.38;;;-141.97;36.49
7018;BME280;3549;42.162;24.726;2023-07-08T10:02:28;47392.22;;;-141.97;35.98
7018;BME280;3549;42.162;24.726;2023-07-08T10:05:10;47376.84;;;-141.97;36.09
7018;BME280;3549;42.162;24.726;2023-07-08T10:07:37;47390.31;;;-141.97;36.18
7018;BME280;3549;42.162;24.726;2023-07-08T10:10:08;47342.25;;;-141.97;35.18
7018;BME280;3549;42.162;24.726;2023-07-08T10:12:37;47357.63;;;-141.97;35.33
7018;BME280;3549;42.162;24.726;2023-07-08T10:15:19;47376.84;;;-141.97;35.43
7018;BME280;3549;42.162;24.726;2023-07-08T10:17:47;47346.09;;;-141.97;35.42
7018;BME280;3549;42.162;24.726;2023-07-08T10:20:13;47376.84;;;-141.97;35.49
7018;BME280;3549;42.162;24.726;2023-07-08T10:25:26;47403.75;;;-141.97;36.16
7018;BME280;3549;42.162;24.726;2023-07-08T10:39:12;47407.59;;;-141.97;35.37
7018;BME280;3549;42.162;24.726;2023-07-08T10:42:07;47382.63;;;-141.97;35.80
7018;BME280;3549;42.162;24.726;2023-07-08T10:53:17;47363.41;;;-141.97;35.04
7018;BME280;3549;42.162;24.726;2023-07-08T10:59:18;47351.88;;;-141.97;34.54
7018;BME280;3549;42.162;24.726;2023-07-08T11:04:28;47340.34;;;-141.97;33.83
7018;BME280;3549;42.162;24.726;2023-07-08T11:09:44;47365.31;;;-141.97;33.44
7018;BME280;3549;42.162;24.726;2023-07-08T11:14:50;47369.16;;;-141.97;34.21
7018;BME280;3549;42.162;24.726;2023-07-08T11:17:30;47315.34;;;-141.97;34.34
7018;BME280;3549;42.162;24.726;2023-07-08T11:20:16;47373.00;;;-141.97;34.61
7018;BME280;3549;42.162;24.726;2023-07-08T11:25:48;47342.25;;;-141.97;34.72
7018;BME280;3549;42.162;24.726;2023-07-08T11:28:18;47365.31;;;-141.97;35.10
7018;BME280;3549;42.162;24.726;2023-07-08T11:30:47;47342.25;;;-141.97;35.35
7018;BME280;3549;42.162;24.726;2023-07-08T11:33:17;47373.00;;;-141.97;34.67
7018;BME280;3549;42.162;24.726;2023-07-08T11:35:51;47326.88;;;-141.97;34.79
7018;BME280;3549;42.162;24.726;2023-07-08T11:38:19;47326.88;;;-141.97;33.93
7018;BME280;3549;42.162;24.726;2023-07-08T11:43:28;47332.66;;;-141.97;35.38
7018;BME280;3549;42.162;24.726;2023-07-08T11:46:03;47359.56;;;-141.97;33.98
7018;BME280;3549;42.162;24.726;2023-07-08T11:48:31;47317.28;;;-141.97;33.13
7018;BME280;3549;42.162;24.726;2023-07-08T11:51:04;47340.34;;;-141.97;33.96
7018;BME280;3549;42.162;24.726;2023-07-08T11:53:31;47336.50;;;-141.97;33.09
7018;BME280;3549;42.162;24.726;2023-07-08T11:56:02;47326.88;;;-141.97;33.81
7018;BME280;3549;42.162;24.726;2023-07-08T12:03:59;47261.53;;;-141.97;31.24
7018;BME280;3549;42.162;24.726;2023-07-08T12:08:58;47286.53;;;-141.97;31.35
7018;BME280;3549;42.162;24.726;2023-07-08T12:11:32;47286.53;;;-141.97;30.98
7018;BME280;3549;42.162;24.726;2023-07-08T12:14:00;47276.91;;;-141.97;31.74
7018;BME280;3549;42.162;24.726;2023-07-08T12:16:27;47265.38;;;-141.97;31.17
7018;BME280;3549;42.162;24.726;2023-07-08T12:18:54;47273.06;;;-141.97;30.31
7018;BME280;3549;42.162;24.726;2023-07-08T12:21:23;47250.00;;;-141.97;30.72
7018;BME280;3549;42.162;24.726;2023-07-08T12:23:51;47292.28;;;-141.97;31.58
7018;BME280;3549;42.162;24.726;2023-07-08T12:26:17;47282.69;;;-141.97;32.25
7018;BME280;3549;42.162;24.726;2023-07-08T12:28:42;47313.44;;;-141.97;33.31
7018;BME280;3549;42.162;24.726;2023-07-08T12:31:20;47328.81;;;-141.97;34.11
7018;BME280;3549;42.162;24.726;2023-07-08T12:33:46;47338.41;;;-141.97;33.31
7018;BME280;3549;42.162;24.726;2023-07-08T12:36:30;47299.97;;;-141.97;32.55
7018;BME280;3549;42.162;24.726;2023-07-08T12:38:58;47324.97;;;-141.97;32.04
7018;BME280;3549;42.162;24.726;2023-07-08T12:41:28;47299.97;;;-141.97;30.15
7018;BME280;3549;42.162;24.726;2023-07-08T12:43:55;47296.13;;;-141.97;30.92
7018;BME280;3549;42.162;24.726;2023-07-08T12:46:21;47299.97;;;-141.97;31.86
7018;BME280;3549;42.162;24.726;2023-07-08T12:48:47;47296.13;;;-141.97;32.16
7018;BME280;3549;42.162;24.726;2023-07-08T12:51:24;47344.19;;;-141.97;32.14
7018;BME280;3549;42.162;24.726;2023-07-08T12:53:51;47267.31;;;-141.97;31.92
7018;BME280;3549;42.162;24.726;2023-07-08T12:56:18;47253.84;;;-141.97;30.73
7018;BME280;3549;42.162;24.726;2023-07-08T12:58:48;47234.63;;;-141.97;29.79
7018;BME280;3549;42.162;24.726;2023-07-08T13:01:23;47261.53;;;-141.97;30.37
7018;BME280;3549;42.162;24.726;2023-07-08T13:03:53;47253.84;;;-141.97;31.95
7018;BME280;3549;42.162;24.726;2023-07-08T13:06:22;47203.88;;;-141.97;33.57
7018;BME280;3549;42.162;24.726;2023-07-08T13:08:49;47299.97;;;-141.97;35.02
7018;BME280;3549;42.162;24.726;2023-07-08T13:11:16;47278.84;;;-141.97;33.95
7018;BME280;3549;42.162;24.726;2023-07-08T13:13:48;47334.56;;;-141.97;34.81
7018;BME280;3549;42.162;24.726;2023-07-08T13:16:15;47524.84;;;-141.97;36.42
7018;BME280;3549;42.162;24.726;2023-07-08T13:18:41;47353.78;;;-141.97;38.93
7018;BME280;3549;42.162;24.726;2023-07-08T13:21:11;47349.94;;;-141.97;41.01
7018;BME280;3549;42.162;24.726;2023-07-08T13:23:38;47407.59;;;-141.97;43.52
7018;BME280;3549;42.162;24.726;2023-07-08T13:26:15;47432.59;;;-141.97;47.97
7018;BME280;3549;42.162;24.726;2023-07-08T13:28:41;47438.34;;;-141.97;52.39
7018;BME280;3549;42.162;24.726;2023-07-08T13:31:23;47461.41;;;-141.97;53.83
7018;BME280;3549;42.162;24.726;2023-07-08T13:33:53;47426.81;;;-141.97;52.16
7018;BME280;3549;42.162;24.726;2023-07-08T13:36:31;47413.38;;;-141.97;50.54
7018;BME280;3549;42.162;24.726;2023-07-08T13:38:58;47415.28;;;-141.97;46.88
7018;BME280;3549;42.162;24.726;2023-07-08T13:41:24;47415.28;;;-141.97;45.60
7018;BME280;3549;42.162;24.726;2023-07-08T13:43:50;47392.22;;;-141.97;44.74
7018;BME280;3549;42.162;24.726;2023-07-08T13:48:53;47438.34;;;-141.97;45.26
7018;BME280;3549;42.162;24.726;2023-07-08T13:51:21;47403.75;;;-141.97;46.07
7018;BME280;3549;42.162;24.726;2023-07-08T13:56:40;47446.03;;;-141.97;46.85
7018;BME280;3549;42.162;24.726;2023-07-08T13:59:09;47422.97;;;-141.97;46.46
7018;BME280;3549;42.162;24.726;2023-07-08T14:01:38;47428.75;;;-141.97;45.08
7018;BME280;3549;42.162;24.726;2023-07-08T14:04:04;47374.94;;;-141.97;40.08
7018;BME280;3549;42.162;24.726;2023-07-08T14:06:33;47342.25;;;-141.97;39.29
7018;BME280;3549;42.162;24.726;2023-07-08T14:09:13;47407.59;;;-141.97;40.49
7018;BME280;3549;42.162;24.726;2023-07-08T14:11:39;47432.59;;;-141.97;42.04